createdAt,value
2023-03-24T00:00:04.925Z,64.52
2023-03-24T00:02:31.702Z,64.90
2023-03-24T00:04:58.406Z,64.31
2023-03-24T00:07:25.657Z,66.00
2023-03-24T00:09:53.913Z,66.09
2023-03-24T00:12:20.586Z,66.54
2023-03-24T00:14:47.372Z,65.44
2023-03-24T00:17:14.107Z,65.28
2023-03-24T00:19:41.285Z,66.67
2023-03-24T00:22:09.411Z,66.25
2023-03-24T00:24:36.046Z,67.39
2023-03-24T00:27:02.653Z,66.55
2023-03-24T00:29:29.320Z,66.98
2023-03-24T00:31:56.249Z,67.83
2023-03-24T00:34:23.345Z,67.51
2023-03-24T00:36:51.354Z,68.14
2023-03-24T00:39:19.874Z,67.96
2023-03-24T00:41:47.914Z,68.45
2023-03-24T00:44:16.281Z,68.56
2023-03-24T00:46:42.888Z,69.49
2023-03-24T00:49:10.269Z,69.23
2023-03-24T00:51:42.602Z,69.50
2023-03-24T00:54:13.021Z,69.52
2023-03-24T00:56:41.091Z,68.61
2023-03-24T00:59:08.553Z,69.73
2023-03-24T01:01:36.227Z,70.48
2023-03-24T01:04:04.617Z,69.49
2023-03-24T01:06:31.372Z,70.75
2023-03-24T01:08:57.993Z,70.42
2023-03-24T01:11:26.484Z,69.78
2023-03-24T01:13:53.680Z,69.73
2023-03-24T01:16:20.522Z,70.58
2023-03-24T01:18:47.256Z,71.20
2023-03-24T01:21:13.860Z,70.76
2023-03-24T01:23:40.627Z,71.08
2023-03-24T01:26:08.919Z,71.65
2023-03-24T01:28:36.589Z,70.46
2023-03-24T01:31:03.194Z,70.82
2023-03-24T01:33:29.740Z,70.67
2023-03-24T01:35:56.320Z,71.09
2023-03-24T01:38:22.897Z,70.97
2023-03-24T01:40:49.557Z,69.75
2023-03-24T01:43:23.780Z,70.28
2023-03-24T01:46:15.636Z,69.45
2023-03-24T01:49:04.947Z,70.45
2023-03-24T01:51:44.508Z,69.80
2023-03-24T01:54:17.129Z,69.54
2023-03-24T01:56:50.549Z,70.83
2023-03-24T01:59:20.812Z,70.88
2023-03-24T02:01:47.397Z,69.75
2023-03-24T02:04:14.722Z,70.80
2023-03-24T02:06:45.409Z,70.63
2023-03-24T02:09:14.183Z,71.68
2023-03-24T02:11:41.799Z,71.07
2023-03-24T02:14:11.034Z,70.64
2023-03-24T02:17:05.587Z,72.27
2023-03-24T02:19:50.421Z,71.71
2023-03-24T02:22:26.005Z,72.33
2023-03-24T02:25:30.069Z,71.70
2023-03-24T02:28:02.316Z,72.86
2023-03-24T02:30:56.710Z,73.86
2023-03-24T02:33:48.131Z,73.05
2023-03-24T02:36:28.262Z,73.28
2023-03-24T02:39:36.430Z,74.22
2023-03-24T02:42:27.508Z,74.45
2023-03-24T02:45:08.949Z,73.58
2023-03-24T02:48:14.324Z,73.09
2023-03-24T02:51:04.216Z,74.23
2023-03-24T02:53:53.687Z,74.06
2023-03-24T02:56:30.390Z,74.11
2023-03-24T02:58:59.959Z,73.92
2023-03-24T03:01:32.395Z,73.05
2023-03-24T03:04:05.203Z,73.69
2023-03-24T03:06:38.197Z,74.03
2023-03-24T03:09:11.763Z,73.10
2023-03-24T03:11:41.539Z,73.51
2023-03-24T03:14:34.055Z,73.80
2023-03-24T03:17:15.602Z,73.65
2023-03-24T03:19:48.614Z,72.68
2023-03-24T03:22:23.205Z,73.21
2023-03-24T03:24:54.445Z,73.03
2023-03-24T03:27:25.781Z,74.56
2023-03-24T03:29:56.005Z,74.44
2023-03-24T03:32:27.950Z,73.89
2023-03-24T03:35:19.754Z,74.76
2023-03-24T03:37:57.563Z,73.71
2023-03-24T03:40:56.480Z,74.26
2023-03-24T03:43:25.626Z,74.71
2023-03-24T03:45:52.811Z,73.79
2023-03-24T03:48:19.732Z,74.05
2023-03-24T03:50:46.633Z,74.66
2023-03-24T03:53:19.819Z,73.34
2023-03-24T03:55:46.966Z,74.25
2023-03-24T03:58:13.887Z,73.50
2023-03-24T04:00:42.481Z,74.43
2023-03-24T04:03:46.206Z,73.17
2023-03-24T04:06:12.745Z,73.16
2023-03-24T04:09:05.704Z,73.23
2023-03-24T04:11:50.158Z,73.14
2023-03-24T04:14:25.681Z,74.29
2023-03-24T04:17:08.312Z,73.84
2023-03-24T04:19:34.879Z,72.78
2023-03-24T04:22:01.506Z,72.55
2023-03-24T04:24:48.204Z,72.30
2023-03-24T04:27:20.902Z,72.47
2023-03-24T04:30:05.894Z,74.11
2023-03-24T04:32:48.882Z,73.39
2023-03-24T04:35:42.673Z,73.58
2023-03-24T04:38:14.179Z,73.18
2023-03-24T04:40:43.354Z,73.81
2023-03-24T04:43:15.561Z,73.84
2023-03-24T04:45:44.962Z,72.79
2023-03-24T04:48:12.892Z,73.47
2023-03-24T04:50:42.116Z,73.16
2023-03-24T04:53:10.341Z,72.63
2023-03-24T04:55:59.157Z,73.20
2023-03-24T04:58:25.734Z,73.56
2023-03-24T05:00:52.452Z,73.15
2023-03-24T05:03:19.508Z,72.95
2023-03-24T05:05:49.477Z,71.88
2023-03-24T05:08:17.015Z,72.16
2023-03-24T05:10:44.310Z,72.23
2023-03-24T05:13:14.281Z,71.41
2023-03-24T05:15:41.354Z,71.01
2023-03-24T05:18:08.971Z,72.61
2023-03-24T05:20:35.895Z,71.72
2023-03-24T05:23:02.436Z,70.38
2023-03-24T05:25:29.161Z,71.79
2023-03-24T05:27:55.784Z,70.67
2023-03-24T05:30:22.676Z,70.27
2023-03-24T05:32:49.416Z,70.96
2023-03-24T05:35:16.131Z,70.89
2023-03-24T05:37:43.012Z,69.42
2023-03-24T05:40:10.444Z,69.51
2023-03-24T05:42:37.028Z,70.25
2023-03-24T05:45:04.949Z,68.77
2023-03-24T05:47:31.695Z,66.57
2023-03-24T05:49:58.272Z,65.69
2023-03-24T05:52:27.338Z,64.69
2023-03-24T05:54:55.246Z,63.13
2023-03-24T05:57:21.882Z,61.37
2023-03-24T05:59:48.466Z,61.36
2023-03-24T06:02:15.379Z,60.93
2023-03-24T06:04:42.097Z,60.37
2023-03-24T06:07:08.768Z,59.64
2023-03-24T06:09:38.307Z,59.18
2023-03-24T06:12:08.151Z,58.42
2023-03-24T06:14:35.028Z,58.14
2023-03-24T06:17:01.545Z,57.21
2023-03-24T06:19:28.530Z,58.83
2023-03-24T06:21:55.165Z,59.78
2023-03-24T06:24:21.746Z,60.03
2023-03-24T06:26:51.023Z,58.17
2023-03-24T06:29:17.906Z,56.75
2023-03-24T06:31:45.360Z,55.85
2023-03-24T06:34:12.202Z,55.05
2023-03-24T06:36:38.761Z,54.77
2023-03-24T06:39:05.504Z,53.66
2023-03-24T06:41:32.644Z,52.54
2023-03-24T06:43:59.254Z,52.07
2023-03-24T06:46:25.973Z,52.91
2023-03-24T06:48:52.638Z,53.06
2023-03-24T06:51:19.543Z,51.60
2023-03-24T06:53:46.347Z,49.68
2023-03-24T06:56:13.342Z,48.57
2023-03-24T06:58:39.970Z,46.75
2023-03-24T07:01:06.555Z,46.67
2023-03-24T07:03:35.661Z,47.04
2023-03-24T07:06:02.301Z,46.10
2023-03-24T07:08:37.953Z,45.48
2023-03-24T07:11:05.706Z,45.07
2023-03-24T07:13:32.393Z,44.54
2023-03-24T07:15:58.996Z,43.68
2023-03-24T07:18:25.542Z,42.52
2023-03-24T07:20:55.176Z,41.67
2023-03-24T07:23:21.768Z,42.07
2023-03-24T07:25:48.467Z,40.81
2023-03-24T07:28:15.097Z,40.56
2023-03-24T07:30:41.693Z,40.46
2023-03-24T07:33:09.456Z,41.54
2023-03-24T07:35:36.163Z,41.31
2023-03-24T07:38:02.862Z,41.24
2023-03-24T07:40:29.608Z,39.90
2023-03-24T07:43:00.595Z,39.92
2023-03-24T07:45:27.558Z,40.66
2023-03-24T07:47:54.578Z,40.48
2023-03-24T07:50:21.123Z,40.76
2023-03-24T07:52:49.178Z,40.04
2023-03-24T07:55:15.958Z,39.04
2023-03-24T07:57:45.460Z,39.05
2023-03-24T08:00:12.681Z,38.64
2023-03-24T08:02:39.528Z,38.27
2023-03-24T08:05:06.428Z,37.75
2023-03-24T08:07:33.124Z,37.58
2023-03-24T08:09:59.978Z,37.37
2023-03-24T08:12:29.568Z,36.61
2023-03-24T08:14:56.351Z,37.15
2023-03-24T08:17:22.882Z,38.38
2023-03-24T08:19:59.497Z,38.42
2023-03-24T08:22:27.998Z,38.74
2023-03-24T08:24:54.674Z,38.75
2023-03-24T08:27:23.111Z,39.00
2023-03-24T08:29:49.728Z,38.93
2023-03-24T08:32:16.509Z,37.89
2023-03-24T08:34:43.202Z,37.51
2023-03-24T08:37:09.730Z,36.30
2023-03-24T08:39:36.286Z,36.27
2023-03-24T08:42:03.386Z,33.98
2023-03-24T08:44:33.002Z,33.26
2023-03-24T08:47:01.245Z,33.25
2023-03-24T08:49:28.072Z,34.07
2023-03-24T08:51:54.612Z,33.42
2023-03-24T08:54:22.579Z,33.28
2023-03-24T08:56:50.112Z,34.79
2023-03-24T08:59:17.288Z,35.06
2023-03-24T09:01:44.018Z,33.72
2023-03-24T09:04:10.655Z,32.10
2023-03-24T09:06:38.178Z,31.90
2023-03-24T09:09:07.520Z,30.22
2023-03-24T09:11:35.792Z,29.19
2023-03-24T09:14:03.332Z,28.30
2023-03-24T09:16:29.990Z,28.26
2023-03-24T09:18:56.654Z,27.26
2023-03-24T09:21:23.725Z,28.16
2023-03-24T09:23:50.276Z,27.80
2023-03-24T09:26:26.288Z,25.70
2023-03-24T09:28:53.277Z,26.33
2023-03-24T09:31:30.001Z,23.72
2023-03-24T09:34:01.151Z,24.86
2023-03-24T09:36:31.213Z,23.86
2023-03-24T09:38:58.009Z,24.08
2023-03-24T09:41:34.644Z,23.33
2023-03-24T09:44:14.690Z,23.11
2023-03-24T09:47:22.625Z,22.25
2023-03-24T09:49:49.662Z,22.40
2023-03-24T09:52:21.429Z,24.17
2023-03-24T09:55:11.269Z,23.28
2023-03-24T09:57:41.004Z,21.78
2023-03-24T10:00:16.617Z,21.63
2023-03-24T10:02:43.709Z,20.55
2023-03-24T10:05:17.144Z,20.25
2023-03-24T10:07:53.621Z,20.46
2023-03-24T10:10:44.484Z,21.52
2023-03-24T10:13:38.680Z,22.79
2023-03-24T10:16:20.815Z,24.86
2023-03-24T10:19:13.772Z,26.31
2023-03-24T10:21:53.280Z,25.24
2023-03-24T10:24:31.296Z,25.15
2023-03-24T10:27:14.926Z,25.57
2023-03-24T10:29:43.301Z,23.93
2023-03-24T10:32:24.662Z,24.06
2023-03-24T10:34:57.506Z,25.12
2023-03-24T10:37:24.380Z,23.89
2023-03-24T10:39:51.875Z,23.54
2023-03-24T10:42:24.473Z,22.77
2023-03-24T10:44:52.450Z,21.84
2023-03-24T10:47:29.006Z,20.64
2023-03-24T10:50:12.003Z,23.13
2023-03-24T10:52:41.946Z,25.30
2023-03-24T10:55:16.346Z,23.74
2023-03-24T10:57:46.132Z,23.83
2023-03-24T11:00:45.225Z,23.24
2023-03-24T11:03:16.830Z,22.74
2023-03-24T11:05:44.810Z,22.65
2023-03-24T11:08:17.331Z,22.38
2023-03-24T11:10:44.266Z,22.73
2023-03-24T11:13:29.035Z,22.01
2023-03-24T11:16:07.506Z,22.09
2023-03-24T11:18:35.270Z,20.85
2023-03-24T11:21:04.519Z,20.21
2023-03-24T11:23:39.243Z,21.29
2023-03-24T11:26:09.885Z,20.46
2023-03-24T11:28:45.461Z,20.13
2023-03-24T11:31:22.093Z,19.21
2023-03-24T11:33:57.530Z,20.69
2023-03-24T11:36:30.436Z,22.35
2023-03-24T11:39:04.029Z,24.05
2023-03-24T11:41:30.682Z,24.89
2023-03-24T11:44:24.145Z,25.65
2023-03-24T11:46:55.849Z,26.95
2023-03-24T11:49:28.340Z,26.44
2023-03-24T11:51:55.939Z,27.26
2023-03-24T11:54:32.879Z,27.86
2023-03-24T11:57:04.587Z,27.75
2023-03-24T11:59:58.312Z,28.46
2023-03-24T12:02:53.085Z,28.08
2023-03-24T12:05:19.743Z,27.91
2023-03-24T12:08:07.128Z,27.86
2023-03-24T12:11:02.598Z,27.16
2023-03-24T12:13:45.206Z,27.94
2023-03-24T12:16:17.527Z,27.51
2023-03-24T12:19:04.533Z,27.66
2023-03-24T12:21:55.622Z,26.86
2023-03-24T12:24:31.540Z,27.84
2023-03-24T12:27:00.206Z,28.84
2023-03-24T12:29:36.056Z,28.20
2023-03-24T12:32:16.703Z,28.32
2023-03-24T12:35:09.865Z,29.13
2023-03-24T12:37:47.339Z,29.39
2023-03-24T12:40:38.588Z,28.82
2023-03-24T12:43:36.266Z,28.97
2023-03-24T12:46:17.594Z,29.16
2023-03-24T12:49:28.457Z,28.66
2023-03-24T12:52:18.175Z,27.96
2023-03-24T12:54:44.707Z,29.89
2023-03-24T12:57:16.518Z,30.31
2023-03-24T13:00:08.830Z,28.69
2023-03-24T13:02:46.158Z,28.89
2023-03-24T13:05:20.914Z,27.01
2023-03-24T13:07:50.321Z,28.28
2023-03-24T13:10:34.477Z,28.16
2023-03-24T13:13:13.833Z,28.15
2023-03-24T13:15:47.242Z,28.30
2023-03-24T13:18:33.010Z,28.49
2023-03-24T13:21:16.406Z,28.18
2023-03-24T13:24:00.893Z,28.92
2023-03-24T13:26:45.688Z,28.73
2023-03-24T13:29:49.035Z,28.67
2023-03-24T13:32:29.494Z,29.51
2023-03-24T13:35:20.001Z,29.22
2023-03-24T13:37:46.555Z,29.50
2023-03-24T13:40:25.289Z,29.90
2023-03-24T13:42:56.793Z,29.86
2023-03-24T13:45:31.368Z,29.67
2023-03-24T13:48:09.788Z,30.01
2023-03-24T13:51:00.483Z,29.76
2023-03-24T13:53:33.534Z,29.78
2023-03-24T13:56:01.087Z,29.24
2023-03-24T13:58:55.704Z,29.51
2023-03-24T14:01:37.616Z,30.10
2023-03-24T14:04:26.297Z,30.41
2023-03-24T14:06:57.794Z,30.07
2023-03-24T14:09:33.293Z,30.59
2023-03-24T14:12:02.544Z,29.91
2023-03-24T14:14:30.772Z,29.54
2023-03-24T14:16:57.981Z,30.16
2023-03-24T14:19:32.563Z,29.85
2023-03-24T14:22:15.408Z,29.90
2023-03-24T14:24:45.978Z,29.97
2023-03-24T14:27:31.637Z,30.05
2023-03-24T14:30:13.450Z,30.51
2023-03-24T14:32:49.791Z,30.55
2023-03-24T14:35:41.783Z,31.17
2023-03-24T14:38:14.275Z,30.78
2023-03-24T14:40:46.769Z,30.27
2023-03-24T14:43:26.786Z,31.05
2023-03-24T14:45:55.094Z,31.56
2023-03-24T14:48:35.692Z,30.34
2023-03-24T14:51:11.570Z,30.47
2023-03-24T14:53:39.285Z,30.72
2023-03-24T14:56:15.316Z,31.58
2023-03-24T14:58:44.112Z,30.96
2023-03-24T15:01:14.487Z,31.74
2023-03-24T15:04:01.502Z,31.22
2023-03-24T15:06:28.248Z,31.85
2023-03-24T15:08:57.158Z,30.86
2023-03-24T15:11:27.348Z,31.22
2023-03-24T15:13:55.679Z,31.40
2023-03-24T15:16:25.503Z,31.94
2023-03-24T15:19:01.876Z,31.08
2023-03-24T15:21:40.367Z,31.76
2023-03-24T15:24:21.791Z,32.52
2023-03-24T15:26:53.158Z,31.84
2023-03-24T15:29:20.193Z,33.14
2023-03-24T15:31:47.450Z,33.17
2023-03-24T15:34:33.478Z,33.67
2023-03-24T15:37:04.002Z,33.02
2023-03-24T15:39:38.790Z,34.26
2023-03-24T15:42:14.530Z,33.78
2023-03-24T15:44:41.834Z,34.07
2023-03-24T15:47:19.741Z,34.62
2023-03-24T15:49:58.211Z,34.57
2023-03-24T15:52:33.637Z,35.05
2023-03-24T15:55:19.302Z,35.41
2023-03-24T15:57:47.823Z,35.93
2023-03-24T16:00:18.186Z,35.92
2023-03-24T16:02:50.565Z,36.51
2023-03-24T16:05:31.614Z,37.24
2023-03-24T16:08:04.268Z,36.45
2023-03-24T16:10:40.385Z,36.92
2023-03-24T16:13:13.396Z,36.80
2023-03-24T16:15:58.945Z,37.94
2023-03-24T16:18:36.958Z,37.81
2023-03-24T16:21:28.376Z,38.62
2023-03-24T16:23:57.813Z,38.88
2023-03-24T16:26:29.857Z,38.61
2023-03-24T16:29:20.460Z,38.37
2023-03-24T16:31:49.373Z,39.64
2023-03-24T16:34:17.258Z,39.60
2023-03-24T16:36:43.946Z,40.05
2023-03-24T16:39:16.285Z,40.23
2023-03-24T16:41:42.990Z,40.17
2023-03-24T16:44:10.246Z,40.26
2023-03-24T16:46:37.971Z,40.39
2023-03-24T16:49:07.137Z,40.90
2023-03-24T16:51:34.253Z,40.70
2023-03-24T16:54:00.829Z,41.69
2023-03-24T16:56:27.466Z,41.38
2023-03-24T16:58:54.175Z,41.44
2023-03-24T17:01:32.943Z,42.19
2023-03-24T17:04:01.826Z,42.02
2023-03-24T17:06:30.380Z,42.65
2023-03-24T17:08:57.771Z,42.69
2023-03-24T17:11:30.210Z,43.51
2023-03-24T17:13:57.801Z,43.92
2023-03-24T17:16:24.385Z,43.88
2023-03-24T17:18:51.205Z,44.20
2023-03-24T17:21:19.090Z,44.50
2023-03-24T17:23:47.355Z,44.62
2023-03-24T17:26:13.926Z,44.90
2023-03-24T17:28:40.600Z,45.35
2023-03-24T17:31:07.418Z,45.79
2023-03-24T17:33:34.416Z,45.82
2023-03-24T17:36:01.018Z,46.26
2023-03-24T17:38:27.640Z,46.09
2023-03-24T17:41:01.265Z,46.10
2023-03-24T17:43:27.974Z,47.13
2023-03-24T17:45:59.028Z,47.50
2023-03-24T17:48:26.285Z,47.59
2023-03-24T17:50:53.522Z,47.67
2023-03-24T17:53:20.425Z,47.35
2023-03-24T17:55:47.036Z,48.04
2023-03-24T17:58:13.609Z,47.52
2023-03-24T18:00:40.300Z,48.88
2023-03-24T18:03:06.832Z,48.63
2023-03-24T18:05:33.391Z,48.71
2023-03-24T18:07:59.943Z,48.57
2023-03-24T18:10:26.517Z,47.93
2023-03-24T18:12:54.484Z,49.19
2023-03-24T18:15:21.189Z,48.91
2023-03-24T18:17:47.707Z,49.71
2023-03-24T18:20:14.486Z,49.55
2023-03-24T18:22:43.904Z,49.84
2023-03-24T18:25:11.744Z,49.50
2023-03-24T18:27:38.350Z,49.26
2023-03-24T18:30:06.188Z,49.85
2023-03-24T18:32:32.866Z,48.96
2023-03-24T18:34:59.993Z,49.25
2023-03-24T18:37:27.891Z,50.04
2023-03-24T18:39:54.529Z,50.04
2023-03-24T18:42:21.143Z,50.39
2023-03-24T18:44:48.140Z,49.96
2023-03-24T18:47:14.795Z,50.05
2023-03-24T18:49:41.648Z,50.39
2023-03-24T18:52:09.617Z,49.67
2023-03-24T18:54:36.477Z,51.43
2023-03-24T18:57:03.148Z,50.20
2023-03-24T18:59:30.022Z,51.05
2023-03-24T19:01:56.799Z,51.49
2023-03-24T19:04:23.345Z,50.73
2023-03-24T19:06:49.884Z,51.98
2023-03-24T19:09:16.654Z,51.86
2023-03-24T19:11:43.518Z,51.37
2023-03-24T19:14:10.351Z,51.52
2023-03-24T19:16:36.981Z,51.49
2023-03-24T19:19:04.232Z,52.17
2023-03-24T19:21:30.985Z,52.35
2023-03-24T19:23:57.516Z,52.51
2023-03-24T19:26:24.099Z,52.44
2023-03-24T19:28:50.928Z,52.73
2023-03-24T19:31:19.234Z,52.53
2023-03-24T19:33:47.071Z,52.42
2023-03-24T19:36:14.248Z,53.04
2023-03-24T19:38:40.862Z,52.79
2023-03-24T19:41:11.451Z,53.26
2023-03-24T19:43:38.148Z,53.56
2023-03-24T19:46:05.949Z,53.04
2023-03-24T19:48:33.571Z,53.93
2023-03-24T19:51:00.159Z,53.65
2023-03-24T19:53:26.833Z,54.00
2023-03-24T19:55:56.614Z,53.54
2023-03-24T19:58:23.307Z,53.59
2023-03-24T20:00:51.165Z,53.83
2023-03-24T20:03:18.020Z,54.22
2023-03-24T20:05:44.726Z,54.40
2023-03-24T20:08:14.178Z,53.48
2023-03-24T20:10:40.916Z,54.56
2023-03-24T20:13:08.583Z,53.57
2023-03-24T20:15:35.539Z,54.29
2023-03-24T20:18:02.351Z,54.69
2023-03-24T20:20:29.025Z,53.43
2023-03-24T20:22:55.628Z,53.77
2023-03-24T20:25:22.185Z,53.80
2023-03-24T20:27:48.854Z,54.52
2023-03-24T20:30:20.291Z,53.67
2023-03-24T20:32:47.204Z,53.36
2023-03-24T20:35:14.310Z,53.00
2023-03-24T20:37:40.889Z,52.98
2023-03-24T20:40:08.476Z,54.16
2023-03-24T20:42:35.256Z,53.55
2023-03-24T20:45:01.771Z,52.93
2023-03-24T20:47:28.345Z,52.74
2023-03-24T20:49:55.034Z,51.35
2023-03-24T20:52:21.686Z,51.98
2023-03-24T20:54:48.281Z,50.69
2023-03-24T20:57:14.947Z,51.20
2023-03-24T20:59:41.681Z,50.95
2023-03-24T21:02:10.721Z,51.83
2023-03-24T21:04:37.401Z,51.13
2023-03-24T21:07:03.960Z,51.80
2023-03-24T21:09:30.560Z,51.83
2023-03-24T21:11:57.127Z,51.31
2023-03-24T21:14:23.673Z,51.15
2023-03-24T21:16:50.506Z,50.78
2023-03-24T21:19:17.581Z,51.11
2023-03-24T21:21:44.155Z,50.67
2023-03-24T21:24:11.016Z,50.84
2023-03-24T21:26:37.518Z,51.35
2023-03-24T21:29:04.110Z,50.29
2023-03-24T21:31:30.782Z,50.78
2023-03-24T21:33:57.695Z,51.43
2023-03-24T21:36:26.340Z,51.63
2023-03-24T21:38:52.961Z,51.05
2023-03-24T21:41:21.006Z,51.95
2023-03-24T21:43:47.880Z,52.05
2023-03-24T21:46:14.497Z,51.47
2023-03-24T21:48:41.382Z,51.76
2023-03-24T21:51:07.948Z,51.66
2023-03-24T21:53:34.551Z,52.81
2023-03-24T21:56:01.116Z,52.59
2023-03-24T21:58:27.961Z,52.41
2023-03-24T22:00:54.988Z,51.69
2023-03-24T22:03:21.713Z,52.54
2023-03-24T22:05:48.765Z,52.51
2023-03-24T22:08:15.626Z,53.69
2023-03-24T22:10:42.168Z,52.79
2023-03-24T22:13:09.505Z,53.90
2023-03-24T22:15:36.846Z,52.69
2023-03-24T22:18:03.750Z,53.94
2023-03-24T22:20:30.496Z,53.36
2023-03-24T22:22:57.209Z,54.02
2023-03-24T22:25:24.083Z,54.45
2023-03-24T22:27:52.602Z,54.38
2023-03-24T22:30:19.561Z,54.15
2023-03-24T22:32:46.097Z,53.95
2023-03-24T22:35:12.892Z,54.52
2023-03-24T22:37:41.616Z,54.43
2023-03-24T22:40:08.989Z,55.16
2023-03-24T22:42:35.774Z,54.55
2023-03-24T22:45:02.440Z,54.10
2023-03-24T22:47:29.170Z,53.90
2023-03-24T22:49:55.765Z,54.16
2023-03-24T22:52:22.295Z,55.51
2023-03-24T22:54:48.828Z,54.92
2023-03-24T22:57:15.465Z,55.21
2023-03-24T22:59:41.990Z,55.43
2023-03-24T23:02:10.267Z,55.36
2023-03-24T23:04:38.048Z,56.04
2023-03-24T23:07:04.586Z,54.99
2023-03-24T23:09:31.387Z,55.99
2023-03-24T23:11:57.929Z,55.43
2023-03-24T23:14:24.563Z,55.36
2023-03-24T23:16:51.571Z,55.38
2023-03-24T23:19:18.165Z,55.57
2023-03-24T23:21:44.780Z,55.77
2023-03-24T23:24:11.303Z,56.08
2023-03-24T23:26:38.019Z,56.36
2023-03-24T23:29:04.673Z,56.93
2023-03-24T23:31:31.212Z,55.78
2023-03-24T23:33:58.597Z,56.57
2023-03-24T23:36:25.364Z,57.16
2023-03-24T23:38:52.676Z,57.04
2023-03-24T23:41:22.527Z,56.94
2023-03-24T23:43:50.529Z,57.93
2023-03-24T23:46:18.291Z,57.16
2023-03-24T23:48:45.417Z,58.10
2023-03-24T23:51:12.336Z,58.11
2023-03-24T23:53:38.961Z,57.65
2023-03-24T23:56:07.541Z,58.45
2023-03-24T23:58:37.382Z,58.64
